RYR22MB EGPH-LFOB
Flight info
| Callsign | RYR22MB |
|---|---|
| Flight time | 1h 14m |
| Altitude | 35000 |
| Route | GOSAM P600 FENIK L612 NAVSO DCT AKOMU DCT VAMEB UL612 WOD UM605 WAFFU/N0355F230 M605 XIDIL/N0336F190 M605 PETAX/N0326F170 J150 VELOL |
| Aircraft | B738/M-SDE2E3FGHIRWXY/LB1 |
Departure
| Time | 2026-05-04 21:56 |
|---|---|
| Airport | Edinburgh Airport (EGPH) |
Arrival
| Time | 2026-05-04 23:11 |
|---|---|
| Airport | Beauvais-Tillé airport (LFOB) |
| Time | Latitude | Longitude | Altitude | Speed | Heading |
|---|---|---|---|---|---|
| 2026-05-04 21:29 | 55.94909 | -3.36499 | 115 ft | 0 kts | 148° |
| 2026-05-04 21:49 | 55.94919 | -3.36510 | 111 ft | 4 kts | 146° |
| 2026-05-04 21:50 | 55.94940 | -3.36540 | 114 ft | 4 kts | 130° |
| 2026-05-04 21:50 | 55.94951 | -3.36577 | 111 ft | 4 kts | 81° |
| 2026-05-04 21:50 | 55.94949 | -3.36593 | 112 ft | 0 kts | 59° |
| 2026-05-04 21:52 | 55.94963 | -3.36547 | 113 ft | 10 kts | 60° |
| 2026-05-04 21:53 | 55.95020 | -3.36400 | 114 ft | 15 kts | 32° |
| 2026-05-04 21:53 | 55.95112 | -3.36349 | 115 ft | 15 kts | 58° |
| 2026-05-04 21:53 | 55.95163 | -3.36195 | 112 ft | 14 kts | 59° |
| 2026-05-04 21:53 | 55.95217 | -3.36036 | 115 ft | 16 kts | 59° |
| 2026-05-04 21:54 | 55.95276 | -3.35861 | 114 ft | 17 kts | 59° |
| 2026-05-04 21:54 | 55.95340 | -3.35672 | 114 ft | 18 kts | 59° |
| 2026-05-04 21:54 | 55.95402 | -3.35489 | 115 ft | 12 kts | 59° |
| 2026-05-04 21:54 | 55.95458 | -3.35404 | 112 ft | 11 kts | 358° |
| 2026-05-04 21:55 | 55.95528 | -3.35472 | 114 ft | 13 kts | 329° |
| 2026-05-04 21:55 | 55.95564 | -3.35580 | 112 ft | 10 kts | 248° |
| 2026-05-04 21:55 | 55.95559 | -3.35599 | 110 ft | 0 kts | 240° |
| 2026-05-04 21:56 | 55.95527 | -3.35697 | 111 ft | 36 kts | 239° |
| 2026-05-04 21:56 | 55.95270 | -3.36455 | 110 ft | 104 kts | 239° |
| 2026-05-04 21:56 | 55.94796 | -3.37859 | 138 ft | 156 kts | 239° |
| 2026-05-04 21:56 | 55.94231 | -3.39517 | 836 ft | 154 kts | 239° |
| 2026-05-04 21:57 | 55.93676 | -3.41138 | 1580 ft | 157 kts | 242° |
| 2026-05-04 21:57 | 55.93053 | -3.42954 | 1998 ft | 189 kts | 242° |
| 2026-05-04 21:57 | 55.92320 | -3.45077 | 2274 ft | 217 kts | 242° |
| 2026-05-04 21:57 | 55.91441 | -3.47457 | 2573 ft | 245 kts | 230° |
| 2026-05-04 21:58 | 55.91368 | -3.47602 | 2593 ft | 246 kts | 228° |
| 2026-05-04 21:58 | 55.91247 | -3.47814 | 2639 ft | 249 kts | 224° |
| 2026-05-04 21:58 | 55.90978 | -3.48198 | 2773 ft | 253 kts | 216° |
| 2026-05-04 21:58 | 55.89295 | -3.49334 | 3644 ft | 262 kts | 197° |
| 2026-05-04 21:59 | 55.87519 | -3.50135 | 4652 ft | 265 kts | 196° |
| 2026-05-04 21:59 | 55.85713 | -3.50947 | 5580 ft | 270 kts | 196° |
| 2026-05-04 21:59 | 55.83880 | -3.51785 | 6528 ft | 274 kts | 197° |
| 2026-05-04 21:59 | 55.82080 | -3.52620 | 7733 ft | 260 kts | 198° |
| 2026-05-04 22:00 | 55.80374 | -3.53421 | 8979 ft | 248 kts | 199° |
| 2026-05-04 22:00 | 55.78740 | -3.54196 | 10085 ft | 240 kts | 199° |
| 2026-05-04 22:00 | 55.77124 | -3.54974 | 10850 ft | 243 kts | 200° |
| 2026-05-04 22:00 | 55.75431 | -3.55800 | 11212 ft | 265 kts | 199° |
| 2026-05-04 22:01 | 55.73560 | -3.56720 | 11451 ft | 292 kts | 199° |
| 2026-05-04 22:01 | 55.71515 | -3.57722 | 11651 ft | 318 kts | 199° |
| 2026-05-04 22:01 | 55.69311 | -3.58797 | 12026 ft | 336 kts | 198° |
| 2026-05-04 22:01 | 55.67033 | -3.59900 | 12751 ft | 342 kts | 198° |
| 2026-05-04 22:02 | 55.64729 | -3.61012 | 13617 ft | 344 kts | 198° |
| 2026-05-04 22:02 | 55.62407 | -3.62133 | 14401 ft | 347 kts | 198° |
| 2026-05-04 22:02 | 55.60065 | -3.63266 | 15112 ft | 351 kts | 199° |
| 2026-05-04 22:02 | 55.57697 | -3.64412 | 15855 ft | 354 kts | 199° |
| 2026-05-04 22:03 | 55.55306 | -3.65569 | 16549 ft | 359 kts | 199° |
| 2026-05-04 22:03 | 55.52883 | -3.66740 | 17259 ft | 363 kts | 199° |
| 2026-05-04 22:03 | 55.50435 | -3.67922 | 17996 ft | 367 kts | 199° |
| 2026-05-04 22:03 | 55.47959 | -3.69117 | 18666 ft | 371 kts | 199° |
| 2026-05-04 22:04 | 55.45467 | -3.70317 | 19291 ft | 372 kts | 198° |
| 2026-05-04 22:04 | 55.42968 | -3.71518 | 19961 ft | 374 kts | 199° |
| 2026-05-04 22:04 | 55.40449 | -3.72728 | 20566 ft | 377 kts | 199° |
| 2026-05-04 22:04 | 55.37909 | -3.73946 | 21176 ft | 380 kts | 199° |
| 2026-05-04 22:05 | 55.35349 | -3.75173 | 21780 ft | 383 kts | 199° |
| 2026-05-04 22:05 | 55.32767 | -3.76409 | 22386 ft | 386 kts | 199° |
| 2026-05-04 22:05 | 55.30170 | -3.77650 | 22963 ft | 389 kts | 199° |
| 2026-05-04 22:05 | 55.27550 | -3.78900 | 23548 ft | 392 kts | 199° |
| 2026-05-04 22:06 | 55.24891 | -3.80049 | 24015 ft | 398 kts | 192° |
| 2026-05-04 22:06 | 55.22092 | -3.80133 | 24432 ft | 409 kts | 177° |
| 2026-05-04 22:06 | 55.19291 | -3.78966 | 24861 ft | 420 kts | 161° |
| 2026-05-04 22:06 | 55.16661 | -3.76831 | 25307 ft | 424 kts | 157° |
| 2026-05-04 22:07 | 55.14012 | -3.74509 | 25739 ft | 428 kts | 156° |
| 2026-05-04 22:07 | 55.11348 | -3.72143 | 26132 ft | 432 kts | 156° |
| 2026-05-04 22:07 | 55.08660 | -3.69765 | 26549 ft | 435 kts | 156° |
| 2026-05-04 22:07 | 55.05947 | -3.67390 | 26963 ft | 437 kts | 156° |
| 2026-05-04 22:08 | 55.03215 | -3.65023 | 27366 ft | 440 kts | 156° |
| 2026-05-04 22:08 | 55.00461 | -3.62656 | 27750 ft | 443 kts | 156° |
| 2026-05-04 22:08 | 54.98725 | -3.61170 | 27989 ft | 445 kts | 156° |
| 2026-05-04 22:08 | 54.96597 | -3.59356 | 28283 ft | 447 kts | 157° |
| 2026-05-04 22:09 | 54.93799 | -3.56975 | 28678 ft | 449 kts | 156° |
| 2026-05-04 22:09 | 54.90991 | -3.54589 | 29147 ft | 449 kts | 156° |
| 2026-05-04 22:09 | 54.88176 | -3.52202 | 29497 ft | 452 kts | 156° |
| 2026-05-04 22:09 | 54.85335 | -3.49797 | 29813 ft | 456 kts | 156° |
| 2026-05-04 22:10 | 54.82476 | -3.47380 | 30142 ft | 459 kts | 156° |
| 2026-05-04 22:10 | 54.79600 | -3.44951 | 30442 ft | 461 kts | 156° |
| 2026-05-04 22:10 | 54.76715 | -3.42518 | 30758 ft | 462 kts | 156° |
| 2026-05-04 22:10 | 54.73824 | -3.40084 | 31125 ft | 462 kts | 156° |
| 2026-05-04 22:11 | 54.70939 | -3.37659 | 31567 ft | 460 kts | 156° |
| 2026-05-04 22:11 | 54.68071 | -3.35253 | 32040 ft | 457 kts | 155° |
| 2026-05-04 22:11 | 54.65218 | -3.32862 | 32479 ft | 455 kts | 155° |
| 2026-05-04 22:11 | 54.62370 | -3.30479 | 32845 ft | 455 kts | 155° |
| 2026-05-04 22:12 | 54.59517 | -3.28097 | 33204 ft | 455 kts | 155° |
| 2026-05-04 22:12 | 54.56674 | -3.25725 | 33598 ft | 454 kts | 155° |
| 2026-05-04 22:12 | 54.53835 | -3.23362 | 34028 ft | 452 kts | 155° |
| 2026-05-04 22:12 | 54.51009 | -3.21013 | 34338 ft | 451 kts | 155° |
| 2026-05-04 22:13 | 54.48189 | -3.18672 | 34610 ft | 451 kts | 155° |
| 2026-05-04 22:13 | 54.45672 | -3.16587 | 34854 ft | 451 kts | 155° |
| 2026-05-04 22:13 | 54.42816 | -3.14223 | 35200 ft | 449 kts | 155° |
| 2026-05-04 22:14 | 54.40044 | -3.11933 | 35538 ft | 447 kts | 155° |
| 2026-05-04 22:14 | 54.37207 | -3.09592 | 35833 ft | 447 kts | 155° |
| 2026-05-04 22:14 | 54.34405 | -3.07283 | 36070 ft | 447 kts | 155° |
| 2026-05-04 22:14 | 54.31640 | -3.05009 | 36330 ft | 447 kts | 155° |
| 2026-05-04 22:15 | 54.28843 | -3.02711 | 36645 ft | 445 kts | 155° |
| 2026-05-04 22:15 | 54.26052 | -3.00422 | 36925 ft | 445 kts | 155° |
| 2026-05-04 22:15 | 54.23259 | -2.98134 | 37074 ft | 447 kts | 155° |
| 2026-05-04 22:16 | 54.17621 | -2.93528 | 37065 ft | 449 kts | 155° |
| 2026-05-04 22:16 | 54.11957 | -2.89234 | 37054 ft | 441 kts | 158° |
| 2026-05-04 22:17 | 54.07255 | -2.85916 | 37065 ft | 440 kts | 158° |
| 2026-05-04 22:17 | 54.01626 | -2.81869 | 37062 ft | 439 kts | 158° |
| 2026-05-04 22:18 | 53.96009 | -2.77816 | 37067 ft | 439 kts | 157° |
| 2026-05-04 22:18 | 53.90366 | -2.73775 | 37076 ft | 443 kts | 157° |
| 2026-05-04 22:19 | 53.84651 | -2.69642 | 37073 ft | 450 kts | 157° |
| 2026-05-04 22:19 | 53.78866 | -2.65457 | 37084 ft | 454 kts | 157° |
| 2026-05-04 22:20 | 53.76553 | -2.63793 | 37072 ft | 455 kts | 157° |
| 2026-05-04 22:20 | 53.70700 | -2.59606 | 37063 ft | 457 kts | 157° |
| 2026-05-04 22:21 | 53.64892 | -2.55463 | 37054 ft | 449 kts | 157° |
| 2026-05-04 22:21 | 53.59165 | -2.51384 | 37067 ft | 446 kts | 156° |
| 2026-05-04 22:22 | 53.53457 | -2.47317 | 37070 ft | 446 kts | 156° |
| 2026-05-04 22:22 | 53.47783 | -2.43286 | 37077 ft | 445 kts | 157° |
| 2026-05-04 22:23 | 53.42069 | -2.39249 | 37075 ft | 446 kts | 157° |
| 2026-05-04 22:23 | 53.36341 | -2.35218 | 37083 ft | 447 kts | 157° |
| 2026-05-04 22:24 | 53.30602 | -2.31186 | 37080 ft | 448 kts | 157° |
| 2026-05-04 22:24 | 53.25781 | -2.27808 | 37082 ft | 449 kts | 157° |
| 2026-05-04 22:25 | 53.20004 | -2.23815 | 37080 ft | 450 kts | 157° |
| 2026-05-04 22:25 | 53.14207 | -2.19839 | 37074 ft | 451 kts | 157° |
| 2026-05-04 22:26 | 53.08407 | -2.15836 | 37076 ft | 451 kts | 157° |
| 2026-05-04 22:26 | 53.02611 | -2.11826 | 37058 ft | 452 kts | 156° |
| 2026-05-04 22:27 | 52.96809 | -2.07823 | 37078 ft | 451 kts | 157° |
| 2026-05-04 22:27 | 52.91010 | -2.03838 | 37064 ft | 451 kts | 157° |
| 2026-05-04 22:28 | 52.85223 | -1.99873 | 37058 ft | 449 kts | 157° |
| 2026-05-04 22:28 | 52.79490 | -1.95955 | 37061 ft | 448 kts | 157° |
| 2026-05-04 22:29 | 52.73737 | -1.92037 | 37064 ft | 447 kts | 158° |
| 2026-05-04 22:29 | 52.68000 | -1.88140 | 37055 ft | 445 kts | 158° |
| 2026-05-04 22:30 | 52.62279 | -1.84265 | 37073 ft | 444 kts | 158° |
| 2026-05-04 22:30 | 52.56569 | -1.80408 | 37074 ft | 443 kts | 158° |
| 2026-05-04 22:31 | 52.50867 | -1.76567 | 37078 ft | 443 kts | 158° |
| 2026-05-04 22:31 | 52.45165 | -1.72737 | 37074 ft | 443 kts | 158° |
| 2026-05-04 22:32 | 52.39468 | -1.68919 | 37075 ft | 443 kts | 158° |
| 2026-05-04 22:32 | 52.33791 | -1.64972 | 37070 ft | 443 kts | 155° |
| 2026-05-04 22:33 | 52.28274 | -1.60437 | 37050 ft | 444 kts | 153° |
| 2026-05-04 22:33 | 52.22961 | -1.55298 | 37060 ft | 445 kts | 145° |
| 2026-05-04 22:34 | 52.17972 | -1.49294 | 37040 ft | 446 kts | 143° |
| 2026-05-04 22:34 | 52.12992 | -1.43260 | 37055 ft | 446 kts | 144° |
| 2026-05-04 22:35 | 52.07980 | -1.37295 | 37042 ft | 446 kts | 145° |
| 2026-05-04 22:35 | 52.02950 | -1.31379 | 37053 ft | 446 kts | 145° |
| 2026-05-04 22:36 | 51.97922 | -1.25499 | 37049 ft | 445 kts | 145° |
| 2026-05-04 22:36 | 51.92898 | -1.19639 | 37045 ft | 444 kts | 145° |
| 2026-05-04 22:37 | 51.87888 | -1.13810 | 37050 ft | 443 kts | 145° |
| 2026-05-04 22:37 | 51.82890 | -1.08010 | 37049 ft | 442 kts | 145° |
| 2026-05-04 22:38 | 51.77907 | -1.02243 | 37048 ft | 441 kts | 145° |
| 2026-05-04 22:38 | 51.72920 | -0.96489 | 37041 ft | 440 kts | 146° |
| 2026-05-04 22:39 | 51.67943 | -0.90760 | 37050 ft | 439 kts | 146° |
| 2026-05-04 22:39 | 51.62966 | -0.85049 | 37047 ft | 440 kts | 146° |
| 2026-05-04 22:40 | 51.57979 | -0.79341 | 37051 ft | 440 kts | 146° |
| 2026-05-04 22:40 | 51.53014 | -0.73674 | 37051 ft | 441 kts | 146° |
| 2026-05-04 22:41 | 51.48006 | -0.67974 | 37047 ft | 442 kts | 146° |
| 2026-05-04 22:41 | 51.42985 | -0.62274 | 37048 ft | 442 kts | 146° |
| 2026-05-04 22:42 | 51.37953 | -0.56579 | 37048 ft | 443 kts | 146° |
| 2026-05-04 22:42 | 51.32919 | -0.50895 | 37054 ft | 443 kts | 146° |
| 2026-05-04 22:43 | 51.27869 | -0.45210 | 37026 ft | 444 kts | 146° |
| 2026-05-04 22:43 | 51.22820 | -0.39541 | 37027 ft | 444 kts | 146° |
| 2026-05-04 22:44 | 51.17768 | -0.33883 | 37024 ft | 444 kts | 146° |
| 2026-05-04 22:44 | 51.12717 | -0.28243 | 37024 ft | 443 kts | 146° |
| 2026-05-04 22:44 | 51.10183 | -0.25420 | 36729 ft | 448 kts | 146° |
| 2026-05-04 22:45 | 51.07646 | -0.22597 | 36257 ft | 446 kts | 146° |
| 2026-05-04 22:45 | 51.02551 | -0.16938 | 35070 ft | 445 kts | 146° |
| 2026-05-04 22:45 | 51.00011 | -0.14122 | 34464 ft | 446 kts | 146° |
| 2026-05-04 22:46 | 50.97467 | -0.11307 | 33789 ft | 446 kts | 146° |
| 2026-05-04 22:46 | 50.94918 | -0.08489 | 33044 ft | 447 kts | 146° |
| 2026-05-04 22:46 | 50.92372 | -0.05678 | 32363 ft | 445 kts | 146° |
| 2026-05-04 22:46 | 50.89833 | -0.02878 | 31677 ft | 444 kts | 146° |
| 2026-05-04 22:47 | 50.87314 | -0.00105 | 31280 ft | 436 kts | 147° |
| 2026-05-04 22:47 | 50.84896 | 0.02555 | 31150 ft | 423 kts | 147° |
| 2026-05-04 22:47 | 50.82484 | 0.05206 | 31046 ft | 410 kts | 147° |
| 2026-05-04 22:47 | 50.80209 | 0.07702 | 31018 ft | 396 kts | 147° |
| 2026-05-04 22:48 | 50.77964 | 0.10161 | 30595 ft | 393 kts | 147° |
| 2026-05-04 22:48 | 50.75682 | 0.12690 | 29279 ft | 411 kts | 144° |
| 2026-05-04 22:48 | 50.73395 | 0.15515 | 28157 ft | 421 kts | 142° |
| 2026-05-04 22:48 | 50.71123 | 0.18444 | 27452 ft | 421 kts | 142° |
| 2026-05-04 22:49 | 50.68873 | 0.21369 | 26852 ft | 418 kts | 142° |
| 2026-05-04 22:49 | 50.66636 | 0.24257 | 26325 ft | 413 kts | 142° |
| 2026-05-04 22:49 | 50.64417 | 0.27101 | 25816 ft | 409 kts | 142° |
| 2026-05-04 22:49 | 50.62215 | 0.29907 | 25317 ft | 405 kts | 142° |
| 2026-05-04 22:50 | 50.60031 | 0.32679 | 24824 ft | 401 kts | 142° |
| 2026-05-04 22:50 | 50.57864 | 0.35425 | 24330 ft | 398 kts | 142° |
| 2026-05-04 22:50 | 50.55718 | 0.38150 | 23840 ft | 395 kts | 142° |
| 2026-05-04 22:50 | 50.53585 | 0.40864 | 23295 ft | 393 kts | 142° |
| 2026-05-04 22:51 | 50.51469 | 0.43555 | 22757 ft | 390 kts | 142° |
| 2026-05-04 22:51 | 50.49368 | 0.46223 | 22256 ft | 386 kts | 142° |
| 2026-05-04 22:51 | 50.47294 | 0.48852 | 21783 ft | 381 kts | 142° |
| 2026-05-04 22:51 | 50.45237 | 0.51453 | 21303 ft | 377 kts | 142° |
| 2026-05-04 22:52 | 50.43204 | 0.54019 | 20846 ft | 374 kts | 142° |
| 2026-05-04 22:52 | 50.41187 | 0.56562 | 20379 ft | 370 kts | 142° |
| 2026-05-04 22:52 | 50.39191 | 0.59077 | 19914 ft | 367 kts | 142° |
| 2026-05-04 22:52 | 50.37221 | 0.61556 | 19707 ft | 357 kts | 142° |
| 2026-05-04 22:53 | 50.35321 | 0.63945 | 19610 ft | 345 kts | 142° |
| 2026-05-04 22:53 | 50.33470 | 0.66273 | 19419 ft | 336 kts | 142° |
| 2026-05-04 22:53 | 50.31668 | 0.68541 | 19152 ft | 330 kts | 142° |
| 2026-05-04 22:53 | 50.29858 | 0.70818 | 18333 ft | 342 kts | 141° |
| 2026-05-04 22:54 | 50.28079 | 0.73351 | 17774 ft | 347 kts | 137° |
| 2026-05-04 22:54 | 50.26365 | 0.76010 | 17377 ft | 348 kts | 135° |
| 2026-05-04 22:54 | 50.24644 | 0.78741 | 17008 ft | 356 kts | 135° |
| 2026-05-04 22:54 | 50.22905 | 0.81501 | 16656 ft | 356 kts | 135° |
| 2026-05-04 22:55 | 50.21165 | 0.84247 | 16298 ft | 355 kts | 135° |
| 2026-05-04 22:55 | 50.19429 | 0.86978 | 15954 ft | 354 kts | 135° |
| 2026-05-04 22:55 | 50.17692 | 0.89696 | 15616 ft | 353 kts | 135° |
| 2026-05-04 22:55 | 50.15953 | 0.92402 | 15286 ft | 353 kts | 135° |
| 2026-05-04 22:56 | 50.14215 | 0.95093 | 14938 ft | 352 kts | 135° |
| 2026-05-04 22:56 | 50.12475 | 0.97774 | 14608 ft | 352 kts | 135° |
| 2026-05-04 22:56 | 50.10734 | 1.00452 | 14280 ft | 351 kts | 135° |
| 2026-05-04 22:56 | 50.09001 | 1.03117 | 13950 ft | 350 kts | 135° |
| 2026-05-04 22:57 | 50.07273 | 1.05774 | 13592 ft | 348 kts | 135° |
| 2026-05-04 22:57 | 50.05553 | 1.08417 | 13230 ft | 347 kts | 135° |
| 2026-05-04 22:57 | 50.03842 | 1.11044 | 12879 ft | 345 kts | 135° |
| 2026-05-04 22:57 | 50.02138 | 1.13657 | 12535 ft | 342 kts | 134° |
| 2026-05-04 22:58 | 50.00472 | 1.16209 | 12221 ft | 340 kts | 135° |
| 2026-05-04 22:58 | 49.98790 | 1.18783 | 11903 ft | 338 kts | 135° |
| 2026-05-04 22:58 | 49.97095 | 1.21374 | 11577 ft | 336 kts | 135° |
| 2026-05-04 22:58 | 49.95462 | 1.23869 | 11259 ft | 331 kts | 134° |
| 2026-05-04 22:59 | 49.93838 | 1.26347 | 10944 ft | 325 kts | 134° |
| 2026-05-04 22:59 | 49.92237 | 1.28785 | 10636 ft | 320 kts | 134° |
| 2026-05-04 22:59 | 49.90661 | 1.31185 | 10336 ft | 315 kts | 134° |
| 2026-05-04 22:59 | 49.89108 | 1.33547 | 10028 ft | 311 kts | 134° |
| 2026-05-04 23:00 | 49.87584 | 1.35862 | 9932 ft | 300 kts | 134° |
| 2026-05-04 23:00 | 49.86126 | 1.38076 | 9901 ft | 287 kts | 134° |
| 2026-05-04 23:00 | 49.84717 | 1.40214 | 9666 ft | 283 kts | 134° |
| 2026-05-04 23:00 | 49.83318 | 1.42335 | 9417 ft | 279 kts | 134° |
| 2026-05-04 23:01 | 49.81932 | 1.44437 | 9064 ft | 280 kts | 134° |
| 2026-05-04 23:01 | 49.80536 | 1.46551 | 8700 ft | 281 kts | 134° |
| 2026-05-04 23:01 | 49.79153 | 1.48642 | 8378 ft | 275 kts | 134° |
| 2026-05-04 23:01 | 49.77787 | 1.50704 | 7926 ft | 274 kts | 134° |
| 2026-05-04 23:02 | 49.76425 | 1.52761 | 7551 ft | 271 kts | 134° |
| 2026-05-04 23:02 | 49.75095 | 1.54769 | 7287 ft | 264 kts | 134° |
| 2026-05-04 23:02 | 49.73792 | 1.56731 | 7035 ft | 258 kts | 134° |
| 2026-05-04 23:02 | 49.72515 | 1.58653 | 6799 ft | 256 kts | 134° |
| 2026-05-04 23:03 | 49.71238 | 1.60575 | 6562 ft | 257 kts | 133° |
| 2026-05-04 23:03 | 49.69956 | 1.62505 | 6315 ft | 258 kts | 134° |
| 2026-05-04 23:03 | 49.68669 | 1.64441 | 6041 ft | 259 kts | 133° |
| 2026-05-04 23:03 | 49.67381 | 1.66375 | 5786 ft | 257 kts | 133° |
| 2026-05-04 23:04 | 49.66118 | 1.68272 | 5525 ft | 250 kts | 134° |
| 2026-05-04 23:04 | 49.64885 | 1.70120 | 5294 ft | 243 kts | 134° |
| 2026-05-04 23:04 | 49.63690 | 1.71909 | 5107 ft | 236 kts | 134° |
| 2026-05-04 23:04 | 49.62525 | 1.73650 | 4896 ft | 231 kts | 133° |
| 2026-05-04 23:05 | 49.61387 | 1.75350 | 4665 ft | 226 kts | 134° |
| 2026-05-04 23:05 | 49.60294 | 1.77043 | 4428 ft | 219 kts | 126° |
| 2026-05-04 23:05 | 49.59458 | 1.78950 | 4251 ft | 210 kts | 120° |
| 2026-05-04 23:05 | 49.58673 | 1.80763 | 4077 ft | 203 kts | 121° |
| 2026-05-04 23:06 | 49.57885 | 1.82558 | 3859 ft | 197 kts | 122° |
| 2026-05-04 23:06 | 49.57141 | 1.84262 | 3673 ft | 192 kts | 120° |
| 2026-05-04 23:06 | 49.56399 | 1.85975 | 3488 ft | 193 kts | 120° |
| 2026-05-04 23:06 | 49.55652 | 1.87703 | 3307 ft | 195 kts | 120° |
| 2026-05-04 23:07 | 49.54888 | 1.89472 | 3138 ft | 194 kts | 120° |
| 2026-05-04 23:07 | 49.54179 | 1.91152 | 3042 ft | 184 kts | 120° |
| 2026-05-04 23:07 | 49.53493 | 1.92745 | 2983 ft | 175 kts | 120° |
| 2026-05-04 23:07 | 49.52801 | 1.94341 | 2824 ft | 177 kts | 119° |
| 2026-05-04 23:08 | 49.52118 | 1.95909 | 2601 ft | 176 kts | 119° |
| 2026-05-04 23:08 | 49.51462 | 1.97414 | 2383 ft | 166 kts | 118° |
| 2026-05-04 23:08 | 49.50845 | 1.98829 | 2173 ft | 153 kts | 118° |
| 2026-05-04 23:08 | 49.50268 | 2.00157 | 1959 ft | 147 kts | 118° |
| 2026-05-04 23:09 | 49.49698 | 2.01472 | 1763 ft | 149 kts | 118° |
| 2026-05-04 23:09 | 49.49115 | 2.02817 | 1572 ft | 152 kts | 118° |
| 2026-05-04 23:09 | 49.48530 | 2.04159 | 1342 ft | 150 kts | 120° |
| 2026-05-04 23:09 | 49.47941 | 2.05506 | 1162 ft | 153 kts | 119° |
| 2026-05-04 23:10 | 49.47337 | 2.06897 | 941 ft | 157 kts | 119° |
| 2026-05-04 23:10 | 49.46742 | 2.08318 | 730 ft | 160 kts | 125° |
| 2026-05-04 23:10 | 49.46327 | 2.09256 | 598 ft | 159 kts | 123° |
| 2026-05-04 23:10 | 49.45710 | 2.10669 | 367 ft | 159 kts | 122° |
| 2026-05-04 23:11 | 49.45163 | 2.11923 | 335 ft | 113 kts | 124° |
| 2026-05-04 23:11 | 49.44965 | 2.12342 | 325 ft | 10 kts | 115° |
| 2026-05-04 23:11 | 49.44983 | 2.12350 | 326 ft | 5 kts | 302° |
| 2026-05-04 23:11 | 49.45010 | 2.12278 | 327 ft | 11 kts | 302° |
| 2026-05-04 23:12 | 49.45063 | 2.12155 | 330 ft | 17 kts | 304° |
| 2026-05-04 23:12 | 49.45141 | 2.11976 | 334 ft | 23 kts | 303° |
| 2026-05-04 23:12 | 49.45240 | 2.11750 | 334 ft | 27 kts | 304° |
| 2026-05-04 23:12 | 49.45341 | 2.11517 | 334 ft | 25 kts | 303° |
| 2026-05-04 23:13 | 49.45439 | 2.11320 | 338 ft | 21 kts | 337° |
| 2026-05-04 23:13 | 49.45552 | 2.11432 | 344 ft | 20 kts | 42° |
| 2026-05-04 23:13 | 49.45652 | 2.11567 | 348 ft | 16 kts | 41° |
| 2026-05-04 23:13 | 49.45735 | 2.11603 | 346 ft | 13 kts | 324° |
| 2026-05-04 23:14 | 49.45795 | 2.11500 | 348 ft | 11 kts | 300° |
| 2026-05-04 23:14 | 49.45791 | 2.11393 | 345 ft | 9 kts | 295° |
| 2026-05-04 23:14 | 49.45818 | 2.11344 | 350 ft | 4 kts | 311° |
| 2026-05-04 23:14 | 49.45822 | 2.11338 | 350 ft | 0 kts | 311° |